Tilburg, Netherlands

8:48 AM CEST on July 28, 2015 (GMT +0200)
Tilburg-Reeshof | | Change Station
CLOSE
Current Station
Personal Weather Station
Location: Tilburg, NOORD-BRABANT
Elevation: 20 ft
Nearby Weather Stations

Elev 20 ft 51.58 °N, 5.01 °E | Updated 13 seconds ago

Mostly Cloudy
Mostly Cloudy
59.0 °F
Feels Like 59.0 °F
N
5.1
Wind Variable Wind from SSW
Gusts 8.5 mph

Today
High -- | Low -- °F
--% Chance of Precip.
Yesterday
High -- | Low -- °F
Precip. -- in
5:56 AM 9:35 PM
Waxing Gibbous, 87% visible
Pressure 29.65 in
Visibility 6.2 miles
Clouds Few 1900 ft
Mostly Cloudy 2600 ft
Mostly Cloudy 3000 ft
Dew Point 54 °F
Humidity 83%
Rainfall 0.00 in
Snow Depth Not available.
UV 1 out of 12
Pollen Not available.
Air Quality Not available.
Flu Activity Not available.
SPECI EHEH 280643Z AUTO 23017KT 9999 FEW019 BKN026 BKN030 15/12 Q1004 BLU 23015G25KT 9999 SCT020 BKN050 TEMPO 27018G28KT FEW010 SCT018CB BKN040

More Conditions Fewer Conditions

Pressure 29.65 in
Visibility 6.2 miles
Clouds Few 1900 ft
Mostly Cloudy 2600 ft
Mostly Cloudy 3000 ft
Dew Point 54 °F
Humidity 83%
Rainfall 0.00 in
Snow Depth Not available.
UV 1 out of 12
Pollen Not available.
Air Quality Not available.
Flu Activity Not available.
SPECI EHEH 280643Z AUTO 23017KT 9999 FEW019 BKN026 BKN030 15/12 Q1004 BLU 23015G25KT 9999 SCT020 BKN050 TEMPO 27018G28KT FEW010 SCT018CB BKN040

More Conditions Fewer Conditions

10-Day Weather Forecast

×

Almanac

Astronomy

Jul. 28, 2015 Rise Set
Actual Time
Civil Twilight
Nautical Twilight
Astronomical Twilight
Moon
Length of Visible Light
Length of Day
Tomorrow will be .
, % of the Moon is Illuminated

Today's Extremes

Country Highs Country Lows

Community

WunderPhotos

Upload Photos

1,841,796 photos uploaded!

WunderBlogs® & News

Nearby

Air Quality

  Air Quality AQ Index Pollutant
Not available.

Snow Depth

Station Depth Elevation

Earthquake Activity

City Distance Mag. Time & Date
Minimum magnitude displayed is 2.5.

Coastal Water Temperatures

Place Temperature

Stations

Nearby Weather Stations

Station Location Temp. Windchill Dew Point Humidity Wind Precip. Elev Updated Type